createdAt,value
2023-02-19T00:00:19.914Z,0.73
2023-02-19T00:03:34.725Z,0.55
2023-02-19T00:06:50.893Z,0.50
2023-02-19T00:09:52.657Z,0.80
2023-02-19T00:13:07.636Z,0.50
2023-02-19T00:16:13.443Z,0.87
2023-02-19T00:19:27.705Z,0.60
2023-02-19T00:22:35.929Z,0.62
2023-02-19T00:25:50.693Z,0.50
2023-02-19T00:29:00.685Z,0.50
2023-02-19T00:32:09.288Z,0.57
2023-02-19T00:35:17.858Z,0.40
2023-02-19T00:38:27.949Z,0.55
2023-02-19T00:41:42.750Z,0.50
2023-02-19T00:44:57.740Z,0.33
2023-02-19T00:48:05.721Z,0.50
2023-02-19T00:51:14.575Z,0.30
2023-02-19T00:54:23.733Z,0.40
2023-02-19T00:57:38.705Z,0.47
2023-02-19T01:00:40.634Z,0.50
2023-02-19T01:03:55.692Z,0.50
2023-02-19T01:06:57.521Z,0.40
2023-02-19T01:10:12.953Z,0.35
2023-02-19T01:13:54.697Z,0.50
2023-02-19T01:16:56.465Z,0.40
2023-02-19T01:20:10.733Z,0.40
2023-02-19T01:23:26.710Z,0.40
2023-02-19T01:26:41.747Z,0.55
2023-02-19T01:29:56.906Z,0.32
2023-02-19T01:32:58.732Z,0.30
2023-02-19T01:36:13.753Z,0.40
2023-02-19T01:39:15.541Z,0.30
2023-02-19T01:42:29.741Z,0.37
2023-02-19T01:45:41.729Z,0.30
2023-02-19T01:48:50.549Z,0.40
2023-02-19T01:52:11.944Z,0.40
2023-02-19T01:55:40.673Z,0.35
2023-02-19T01:58:49.766Z,0.30
2023-02-19T02:01:58.852Z,0.35
2023-02-19T02:05:27.748Z,0.60
2023-02-19T02:08:31.253Z,0.40
2023-02-19T02:11:50.753Z,0.60
2023-02-19T02:14:52.457Z,0.50
2023-02-19T02:18:18.733Z,0.50
2023-02-19T02:21:53.728Z,0.50
2023-02-19T02:25:26.807Z,0.50
2023-02-19T02:29:18.850Z,0.80
2023-02-19T02:32:26.493Z,0.50
2023-02-19T02:35:51.761Z,0.37
2023-02-19T02:39:01.745Z,0.30
2023-02-19T02:42:10.685Z,0.40
2023-02-19T02:45:32.717Z,0.32
2023-02-19T02:48:47.913Z,0.57
2023-02-19T02:52:03.757Z,0.47
2023-02-19T02:55:18.763Z,0.30
2023-02-19T02:58:23.536Z,0.30
2023-02-19T03:01:46.767Z,0.37
2023-02-19T03:05:15.761Z,0.43
2023-02-19T03:08:30.231Z,0.32
2023-02-19T03:11:48.825Z,0.40
2023-02-19T03:14:55.949Z,0.30
2023-02-19T03:18:15.776Z,0.37
2023-02-19T03:21:27.758Z,0.37
2023-02-19T03:24:51.334Z,0.40
2023-02-19T03:28:09.742Z,0.60
2023-02-19T03:31:21.116Z,0.50
2023-02-19T03:34:43.976Z,0.55
2023-02-19T03:38:01.749Z,0.70
2023-02-19T03:41:23.910Z,0.57
2023-02-19T03:44:47.753Z,0.50
2023-02-19T03:48:18.223Z,0.63
2023-02-19T03:51:40.782Z,0.60
2023-02-19T03:55:03.405Z,0.47
2023-02-19T03:58:21.777Z,0.40
2023-02-19T04:01:50.790Z,0.47
2023-02-19T04:05:19.800Z,0.40
2023-02-19T04:08:29.999Z,0.40
2023-02-19T04:11:45.866Z,0.37
2023-02-19T04:15:01.413Z,0.40
2023-02-19T04:18:15.754Z,0.40
2023-02-19T04:21:36.761Z,0.30
2023-02-19T04:24:53.945Z,0.35
2023-02-19T04:28:02.933Z,0.30
2023-02-19T04:34:54.445Z,0.40
2023-02-19T04:38:02.438Z,0.30
2023-02-19T04:41:11.153Z,0.40
2023-02-19T04:44:27.044Z,0.40
2023-02-19T04:51:54.834Z,0.30
2023-02-19T04:55:15.766Z,0.40
2023-02-19T04:58:24.460Z,0.32
2023-02-19T05:01:34.150Z,0.30
2023-02-19T05:04:54.833Z,0.30
2023-02-19T05:08:01.224Z,0.43
2023-02-19T05:11:33.735Z,0.50
2023-02-19T05:14:55.468Z,0.50
2023-02-19T05:18:10.757Z,0.65
2023-02-19T05:25:11.769Z,0.50
2023-02-19T05:28:26.969Z,0.67
2023-02-19T05:31:34.203Z,0.65
2023-02-19T05:34:51.849Z,0.70
2023-02-19T05:37:59.798Z,0.50
2023-02-19T05:41:17.833Z,0.70
2023-02-19T05:44:25.842Z,0.57
2023-02-19T05:47:34.365Z,0.70
2023-02-19T05:51:14.361Z,0.73
2023-02-19T05:54:23.588Z,0.90
2023-02-19T05:57:37.832Z,0.90
2023-02-19T06:04:29.073Z,1.00
2023-02-19T06:07:43.906Z,0.90
2023-02-19T06:10:55.844Z,0.80
2023-02-19T06:18:37.661Z,0.80
2023-02-19T06:21:49.645Z,1.20
2023-02-19T06:24:57.881Z,0.90
2023-02-19T06:28:12.827Z,1.12
2023-02-19T06:31:18.440Z,1.30
2023-02-19T06:34:37.837Z,1.40
2023-02-19T06:37:39.694Z,1.70
2023-02-19T06:41:05.808Z,1.77
2023-02-19T06:44:34.047Z,2.20
2023-02-19T06:47:50.821Z,2.17
2023-02-19T06:51:01.785Z,2.80
2023-02-19T06:54:16.803Z,2.80
2023-02-19T06:57:18.545Z,3.42
2023-02-19T07:00:41.960Z,4.03
2023-02-19T07:04:04.909Z,5.30
2023-02-19T07:07:13.406Z,5.17
2023-02-19T07:10:39.227Z,6.53
2023-02-19T07:13:54.777Z,6.35
2023-02-19T07:17:10.113Z,6.12
2023-02-19T07:20:25.997Z,6.40
2023-02-19T07:23:27.885Z,7.63
2023-02-19T07:26:42.794Z,7.60
2023-02-19T07:29:53.662Z,7.30
2023-02-19T07:33:44.092Z,9.07
2023-02-19T07:36:51.861Z,7.97
2023-02-19T07:40:01.518Z,8.10
2023-02-19T07:43:15.809Z,9.30
2023-02-19T07:46:24.982Z,9.95
2023-02-19T07:57:34.843Z,8.77
2023-02-19T08:05:12.853Z,9.10
2023-02-19T08:09:14.210Z,8.70
2023-02-19T08:12:53.215Z,8.77
2023-02-19T08:28:43.423Z,7.72
2023-02-19T08:36:08.612Z,8.13
2023-02-19T08:39:28.962Z,5.85
2023-02-19T08:50:01.133Z,2.83
2023-02-19T09:20:16.960Z,2.70
2023-02-19T09:28:06.197Z,4.37
2023-02-19T09:32:13.749Z,4.70
2023-02-19T09:39:21.671Z,4.37
2023-02-19T09:47:42.304Z,5.07
2023-02-19T09:54:33.008Z,5.80
2023-02-19T09:58:17.177Z,5.70
2023-02-19T10:44:22.988Z,3.60
2023-02-19T11:00:52.999Z,2.50
2023-02-19T11:51:20.998Z,1.45
2023-02-19T11:55:17.238Z,1.60
2023-02-19T11:58:53.945Z,1.65
2023-02-19T12:02:27.257Z,1.40
2023-02-19T12:06:06.935Z,1.40
2023-02-19T12:09:41.949Z,2.33
2023-02-19T12:13:16.986Z,1.40
2023-02-19T12:16:37.952Z,1.30
2023-02-19T12:20:31.946Z,1.47
2023-02-19T12:24:11.877Z,1.10
2023-02-19T12:27:44.946Z,1.70
2023-02-19T12:31:11.988Z,1.05
2023-02-19T12:34:57.027Z,1.00
2023-02-19T12:38:28.942Z,1.03
2023-02-19T12:49:26.566Z,0.80
2023-02-19T12:56:54.078Z,0.90
2023-02-19T13:00:36.958Z,1.10
2023-02-19T13:11:25.983Z,0.30
2023-02-19T13:30:09.120Z,0.50
2023-02-19T13:41:54.287Z,0.50
2023-02-19T13:45:12.005Z,0.60
2023-02-19T13:48:29.569Z,0.47
2023-02-19T14:00:04.831Z,0.22
2023-02-19T14:03:30.243Z,0.30
2023-02-19T14:07:05.102Z,0.40
2023-02-19T14:10:20.033Z,0.30
2023-02-19T14:18:42.890Z,0.40
2023-02-19T14:21:57.958Z,0.30
2023-02-19T14:25:07.995Z,0.30
2023-02-19T14:28:36.951Z,0.30
2023-02-19T14:31:58.086Z,0.50
2023-02-19T14:35:13.901Z,0.40
2023-02-19T14:38:45.375Z,1.45
2023-02-19T14:41:58.905Z,0.40
2023-02-19T14:45:14.902Z,0.30
2023-02-19T14:48:22.897Z,0.20
2023-02-19T14:51:46.889Z,0.28
2023-02-19T14:55:01.405Z,0.20
2023-02-19T14:58:18.913Z,0.30
2023-02-19T15:01:28.936Z,0.20
2023-02-19T15:04:42.986Z,0.23
2023-02-19T15:08:01.930Z,0.47
2023-02-19T15:11:23.965Z,0.15
2023-02-19T15:14:33.673Z,0.13
2023-02-19T15:17:47.905Z,0.20
2023-02-19T15:24:24.239Z,0.45
2023-02-19T15:28:30.607Z,0.20
2023-02-19T15:31:35.539Z,0.30
2023-02-19T15:35:01.007Z,0.30
2023-02-19T15:38:02.907Z,0.37
2023-02-19T15:41:31.854Z,0.20
2023-02-19T15:45:01.968Z,0.20
2023-02-19T15:52:36.873Z,0.30
2023-02-19T15:55:52.013Z,0.30
2023-02-19T15:59:13.028Z,0.30
2023-02-19T16:02:21.921Z,0.20
2023-02-19T16:05:37.992Z,0.28
2023-02-19T16:08:48.933Z,0.20
2023-02-19T16:12:06.951Z,0.20
2023-02-19T16:31:08.024Z,0.20
2023-02-19T16:34:47.028Z,0.35
2023-02-19T16:38:04.985Z,0.30
2023-02-19T16:41:21.985Z,0.40
2023-02-19T16:44:37.023Z,0.20
2023-02-19T16:47:48.854Z,0.27
2023-02-19T16:51:07.006Z,0.30
2023-02-19T16:54:12.993Z,0.30
2023-02-19T16:57:27.992Z,0.20
2023-02-19T17:00:38.876Z,0.30
2023-02-19T17:03:48.301Z,0.20
2023-02-19T17:06:57.002Z,0.32
2023-02-19T17:10:10.414Z,0.35
2023-02-19T17:13:26.975Z,0.20
2023-02-19T17:16:46.013Z,0.27
2023-02-19T17:19:54.625Z,0.20
2023-02-19T17:23:07.957Z,0.20
2023-02-19T17:26:20.088Z,0.20
2023-02-19T17:29:29.100Z,0.17
2023-02-19T17:32:44.316Z,0.30
2023-02-19T17:35:52.992Z,0.17
2023-02-19T17:39:04.007Z,0.20
2023-02-19T17:42:13.058Z,0.13
2023-02-19T17:45:32.920Z,0.10
2023-02-19T17:48:41.991Z,0.20
2023-02-19T17:51:56.973Z,0.47
2023-02-19T17:55:06.317Z,0.20
2023-02-19T17:58:14.976Z,0.30
2023-02-19T18:01:31.057Z,0.10
2023-02-19T18:04:46.009Z,0.10
2023-02-19T18:07:49.095Z,0.30
2023-02-19T18:11:03.963Z,0.20
2023-02-19T18:14:12.979Z,0.28
2023-02-19T18:17:27.981Z,0.30
2023-02-19T18:20:37.883Z,0.20
2023-02-19T18:23:46.049Z,0.30
2023-02-19T18:27:00.996Z,0.30
2023-02-19T18:45:42.003Z,0.40
2023-02-19T18:48:46.133Z,0.30
2023-02-19T18:52:02.029Z,0.30
2023-02-19T18:55:10.993Z,0.40
2023-02-19T18:58:20.282Z,0.30
2023-02-19T19:01:34.973Z,0.40
2023-02-19T19:04:54.030Z,0.32
2023-02-19T19:07:57.118Z,0.52
2023-02-19T19:11:12.302Z,0.47
2023-02-19T19:14:14.390Z,0.60
2023-02-19T19:17:31.395Z,0.32
2023-02-19T19:20:33.770Z,0.40
2023-02-19T19:23:49.017Z,0.60
2023-02-19T19:26:58.985Z,0.40
2023-02-19T19:30:15.267Z,0.40
2023-02-19T19:38:07.414Z,0.35
2023-02-19T19:41:33.609Z,0.60
2023-02-19T19:44:59.028Z,0.50
2023-02-19T19:48:14.109Z,0.60
2023-02-19T19:51:22.842Z,0.80
2023-02-19T19:54:31.026Z,0.70
2023-02-19T19:57:41.005Z,0.60
2023-02-19T20:04:18.946Z,0.90
2023-02-19T20:08:01.068Z,0.80
2023-02-19T20:11:22.998Z,0.60
2023-02-19T20:14:32.791Z,0.60
2023-02-19T20:33:30.042Z,0.60
2023-02-19T20:36:54.041Z,0.90
2023-02-19T20:40:03.130Z,1.37
2023-02-19T20:43:19.042Z,0.90
2023-02-19T20:46:34.036Z,0.70
2023-02-19T20:50:03.165Z,1.05
2023-02-19T20:53:37.021Z,0.70
2023-02-19T20:56:44.842Z,0.73
2023-02-19T21:00:31.119Z,0.85
2023-02-19T21:03:33.297Z,0.60
2023-02-19T21:06:48.013Z,0.50
2023-02-19T21:09:50.596Z,0.75
2023-02-19T21:13:05.102Z,0.70
2023-02-19T21:16:20.060Z,0.70
2023-02-19T21:19:35.109Z,0.63
2023-02-19T21:22:44.053Z,0.60
2023-02-19T21:25:54.570Z,0.77
2023-02-19T21:29:03.044Z,0.80
2023-02-19T21:32:46.310Z,0.50
2023-02-19T21:36:03.259Z,0.67
2023-02-19T21:39:13.060Z,1.12
2023-02-19T21:42:22.000Z,0.90
2023-02-19T21:45:30.093Z,0.70
2023-02-19T21:48:38.876Z,0.88
2023-02-19T21:51:50.046Z,0.73
2023-02-19T21:54:58.678Z,0.60
2023-02-19T21:58:07.009Z,0.68
2023-02-19T22:01:40.045Z,0.60
2023-02-19T22:04:53.892Z,0.45
2023-02-19T22:08:02.037Z,0.50
2023-02-19T22:11:10.954Z,0.70
2023-02-19T22:14:26.012Z,0.50
2023-02-19T22:17:27.775Z,0.60
2023-02-19T22:20:42.033Z,0.52
2023-02-19T22:23:52.039Z,0.40
2023-02-19T22:27:06.985Z,0.52
2023-02-19T22:30:09.333Z,0.50
2023-02-19T22:33:32.077Z,0.70
2023-02-19T22:36:34.955Z,1.00
2023-02-19T22:39:51.122Z,1.00
2023-02-19T22:42:52.863Z,0.50
2023-02-19T22:46:07.068Z,0.68
2023-02-19T22:49:09.137Z,0.50
2023-02-19T22:52:24.015Z,1.00
2023-02-19T22:55:33.068Z,0.73
2023-02-19T22:58:49.022Z,0.60
2023-02-19T23:01:51.432Z,0.70
2023-02-19T23:05:06.048Z,0.60
2023-02-19T23:08:14.745Z,0.77
2023-02-19T23:11:29.037Z,0.77
2023-02-19T23:14:37.921Z,0.47
2023-02-19T23:17:46.054Z,0.75
2023-02-19T23:21:01.241Z,0.43
2023-02-19T23:24:04.013Z,0.47
2023-02-19T23:27:19.045Z,0.70
2023-02-19T23:30:22.786Z,0.45
2023-02-19T23:33:44.074Z,0.43
2023-02-19T23:36:56.005Z,0.50
2023-02-19T23:40:12.104Z,0.73
2023-02-19T23:43:13.794Z,0.50
2023-02-19T23:46:28.173Z,0.70
2023-02-19T23:49:36.854Z,0.62
2023-02-19T23:52:45.061Z,0.50
2023-02-19T23:56:00.017Z,0.50
2023-02-19T23:59:08.083Z,0.60
